sensor_id;sensor_type;location;lat;lon;timestamp;pressure;altitude;pressure_sealevel;temperature;humidity
13422;BME280;6782;55.904;13.396;2023-02-15T00:02:22;102647.06;;;3.43;100.00
13422;BME280;6782;55.904;13.396;2023-02-15T00:05:09;102642.69;;;3.42;100.00
13422;BME280;6782;55.904;13.396;2023-02-15T00:07:57;102635.53;;;3.36;100.00
13422;BME280;6782;55.904;13.396;2023-02-15T00:10:44;102624.00;;;3.30;100.00
13422;BME280;6782;55.904;13.396;2023-02-15T00:13:32;102635.59;;;3.38;100.00
13422;BME280;6782;55.904;13.396;2023-02-15T00:16:21;102643.53;;;3.41;100.00
13422;BME280;6782;55.904;13.396;2023-02-15T00:19:09;102637.16;;;3.33;100.00
13422;BME280;6782;55.904;13.396;2023-02-15T00:21:56;102638.94;;;3.34;100.00
13422;BME280;6782;55.904;13.396;2023-02-15T00:24:43;102637.16;;;3.33;100.00
13422;BME280;6782;55.904;13.396;2023-02-15T00:27:30;102618.38;;;3.19;100.00
13422;BME280;6782;55.904;13.396;2023-02-15T00:30:19;102635.28;;;3.29;100.00
13422;BME280;6782;55.904;13.396;2023-02-15T00:33:06;102632.97;;;3.38;100.00
13422;BME280;6782;55.904;13.396;2023-02-15T00:35:56;102628.75;;;3.17;100.00
13422;BME280;6782;55.904;13.396;2023-02-15T00:38:43;102629.09;;;3.27;100.00
13422;BME280;6782;55.904;13.396;2023-02-15T00:41:31;102633.59;;;3.31;100.00
13422;BME280;6782;55.904;13.396;2023-02-15T00:44:18;102627.06;;;3.18;100.00
13422;BME280;6782;55.904;13.396;2023-02-15T00:47:06;102636.47;;;3.14;100.00
13422;BME280;6782;55.904;13.396;2023-02-15T00:49:54;102639.34;;;3.22;100.00
13422;BME280;6782;55.904;13.396;2023-02-15T00:52:41;102642.63;;;3.16;100.00
13422;BME280;6782;55.904;13.396;2023-02-15T00:55:28;102641.69;;;3.14;100.00
13422;BME280;6782;55.904;13.396;2023-02-15T00:58:15;102653.16;;;3.20;100.00
13422;BME280;6782;55.904;13.396;2023-02-15T01:01:03;102644.44;;;3.19;100.00
13422;BME280;6782;55.904;13.396;2023-02-15T01:03:53;102652.56;;;3.27;100.00
13422;BME280;6782;55.904;13.396;2023-02-15T01:06:40;102668.56;;;3.36;100.00
13422;BME280;6782;55.904;13.396;2023-02-15T01:09:27;102654.47;;;3.31;100.00
13422;BME280;6782;55.904;13.396;2023-02-15T01:12:14;102660.56;;;3.31;100.00
13422;BME280;6782;55.904;13.396;2023-02-15T01:15:01;102662.44;;;3.35;100.00
13422;BME280;6782;55.904;13.396;2023-02-15T01:17:48;102654.22;;;3.25;100.00
13422;BME280;6782;55.904;13.396;2023-02-15T01:20:39;102640.13;;;3.20;100.00
13422;BME280;6782;55.904;13.396;2023-02-15T01:23:27;102647.41;;;3.28;100.00
13422;BME280;6782;55.904;13.396;2023-02-15T01:26:15;102651.06;;;3.33;100.00
13422;BME280;6782;55.904;13.396;2023-02-15T01:29:02;102650.41;;;3.39;100.00
13422;BME280;6782;55.904;13.396;2023-02-15T01:31:49;102638.56;;;3.25;100.00
13422;BME280;6782;55.904;13.396;2023-02-15T01:34:36;102640.25;;;3.23;100.00
13422;BME280;6782;55.904;13.396;2023-02-15T01:37:25;102628.38;;;3.07;100.00
13422;BME280;6782;55.904;13.396;2023-02-15T01:40:14;102621.94;;;2.97;100.00
13422;BME280;6782;55.904;13.396;2023-02-15T01:43:01;102628.31;;;3.05;100.00
13422;BME280;6782;55.904;13.396;2023-02-15T01:45:49;102641.91;;;3.21;100.00
13422;BME280;6782;55.904;13.396;2023-02-15T01:48:43;102633.41;;;3.02;100.00
13422;BME280;6782;55.904;13.396;2023-02-15T01:51:33;102626.09;;;2.92;100.00
13422;BME280;6782;55.904;13.396;2023-02-15T01:54:25;102633.66;;;2.86;100.00
13422;BME280;6782;55.904;13.396;2023-02-15T01:57:18;102628.91;;;2.98;100.00
13422;BME280;6782;55.904;13.396;2023-02-15T02:00:08;102634.25;;;3.01;100.00
13422;BME280;6782;55.904;13.396;2023-02-15T02:02:56;102637.75;;;3.02;100.00
13422;BME280;6782;55.904;13.396;2023-02-15T02:05:44;102658.75;;;3.29;100.00
13422;BME280;6782;55.904;13.396;2023-02-15T02:08:31;102639.69;;;3.07;100.00
13422;BME280;6782;55.904;13.396;2023-02-15T02:11:20;102644.41;;;3.17;100.00
13422;BME280;6782;55.904;13.396;2023-02-15T02:14:07;102641.69;;;3.14;100.00
13422;BME280;6782;55.904;13.396;2023-02-15T02:17:01;102641.66;;;3.13;100.00
13422;BME280;6782;55.904;13.396;2023-02-15T02:20:17;102649.78;;;3.22;100.00
13422;BME280;6782;55.904;13.396;2023-02-15T02:23:18;102651.75;;;3.28;100.00
13422;BME280;6782;55.904;13.396;2023-02-15T02:26:32;102636.84;;;3.01;100.00
13422;BME280;6782;55.904;13.396;2023-02-15T02:29:57;102641.69;;;3.14;100.00
13422;BME280;6782;55.904;13.396;2023-02-15T02:36:40;102631.72;;;3.03;100.00
13422;BME280;6782;55.904;13.396;2023-02-15T02:39:37;102635.47;;;3.11;100.00
13422;BME280;6782;55.904;13.396;2023-02-15T02:42:33;102625.66;;;3.04;100.00
13422;BME280;6782;55.904;13.396;2023-02-15T02:45:26;102633.03;;;3.15;100.00
13422;BME280;6782;55.904;13.396;2023-02-15T02:48:18;102624.69;;;3.02;100.00
13422;BME280;6782;55.904;13.396;2023-02-15T02:51:06;102618.34;;;2.95;100.00
13422;BME280;6782;55.904;13.396;2023-02-15T02:53:56;102618.44;;;2.97;100.00
13422;BME280;6782;55.904;13.396;2023-02-15T02:56:47;102630.72;;;3.23;100.00
13422;BME280;6782;55.904;13.396;2023-02-15T02:59:38;102621.56;;;3.10;100.00
13422;BME280;6782;55.904;13.396;2023-02-15T03:02:29;102624.16;;;3.10;100.00
13422;BME280;6782;55.904;13.396;2023-02-15T03:05:21;102624.94;;;3.08;100.00
13422;BME280;6782;55.904;13.396;2023-02-15T03:08:12;102632.81;;;3.09;100.00
13422;BME280;6782;55.904;13.396;2023-02-15T03:11:09;102622.06;;;3.00;100.00
13422;BME280;6782;55.904;13.396;2023-02-15T03:13:58;102620.50;;;3.05;100.00
13422;BME280;6782;55.904;13.396;2023-02-15T03:16:47;102620.81;;;3.14;100.00
13422;BME280;6782;55.904;13.396;2023-02-15T03:19:36;102601.25;;;3.02;100.00
13422;BME280;6782;55.904;13.396;2023-02-15T03:22:28;102619.91;;;3.12;100.00
13422;BME280;6782;55.904;13.396;2023-02-15T03:25:19;102627.09;;;3.20;100.00
13422;BME280;6782;55.904;13.396;2023-02-15T03:28:11;102621.66;;;3.13;100.00
13422;BME280;6782;55.904;13.396;2023-02-15T03:31:02;102617.16;;;3.09;100.00
13422;BME280;6782;55.904;13.396;2023-02-15T03:33:54;102615.22;;;3.04;100.00
13422;BME280;6782;55.904;13.396;2023-02-15T03:36:44;102607.16;;;2.98;100.00
13422;BME280;6782;55.904;13.396;2023-02-15T03:39:36;102601.69;;;3.14;100.00
13422;BME280;6782;55.904;13.396;2023-02-15T03:42:27;102604.09;;;3.08;100.00
13422;BME280;6782;55.904;13.396;2023-02-15T03:45:24;102614.88;;;3.18;100.00
13422;BME280;6782;55.904;13.396;2023-02-15T03:48:12;102606.75;;;3.09;100.00
13422;BME280;6782;55.904;13.396;2023-02-15T03:51:02;102613.13;;;3.17;100.00
13422;BME280;6782;55.904;13.396;2023-02-15T03:54:09;102606.09;;;3.15;100.00
13422;BME280;6782;55.904;13.396;2023-02-15T03:56:57;102607.19;;;3.22;100.00
13422;BME280;6782;55.904;13.396;2023-02-15T03:59:59;102607.03;;;3.17;100.00
13422;BME280;6782;55.904;13.396;2023-02-15T04:03:16;102609.91;;;3.25;100.00
13422;BME280;6782;55.904;13.396;2023-02-15T04:06:07;102605.63;;;3.27;100.00
13422;BME280;6782;55.904;13.396;2023-02-15T04:08:54;102600.41;;;3.27;100.00
13422;BME280;6782;55.904;13.396;2023-02-15T04:11:59;102595.00;;;3.21;100.00
13422;BME280;6782;55.904;13.396;2023-02-15T04:14:46;102618.91;;;3.58;100.00
13422;BME280;6782;55.904;13.396;2023-02-15T04:17:47;102603.88;;;3.26;100.00
13422;BME280;6782;55.904;13.396;2023-02-15T04:20:35;102614.38;;;3.52;100.00
13422;BME280;6782;55.904;13.396;2023-02-15T04:23:40;102591.41;;;3.18;100.00
13422;BME280;6782;55.904;13.396;2023-02-15T04:26:44;102581.59;;;3.11;100.00
13422;BME280;6782;55.904;13.396;2023-02-15T04:29:33;102585.44;;;3.21;100.00
13422;BME280;6782;55.904;13.396;2023-02-15T04:32:20;102584.44;;;3.17;100.00
13422;BME280;6782;55.904;13.396;2023-02-15T04:35:08;102579.22;;;3.17;100.00
13422;BME280;6782;55.904;13.396;2023-02-15T04:37:57;102574.03;;;3.17;100.00
13422;BME280;6782;55.904;13.396;2023-02-15T04:40:44;102576.63;;;3.17;100.00
13422;BME280;6782;55.904;13.396;2023-02-15T04:43:35;102579.34;;;3.21;100.00
13422;BME280;6782;55.904;13.396;2023-02-15T04:46:22;102571.03;;;3.31;100.00
13422;BME280;6782;55.904;13.396;2023-02-15T04:49:10;102576.22;;;3.31;100.00
13422;BME280;6782;55.904;13.396;2023-02-15T04:51:57;102568.81;;;3.17;100.00
13422;BME280;6782;55.904;13.396;2023-02-15T04:54:45;102570.91;;;3.28;100.00
13422;BME280;6782;55.904;13.396;2023-02-15T04:57:32;102578.00;;;3.32;100.00
13422;BME280;6782;55.904;13.396;2023-02-15T05:00:20;102580.94;;;3.41;100.00
13422;BME280;6782;55.904;13.396;2023-02-15T05:03:07;102581.13;;;3.47;100.00
13422;BME280;6782;55.904;13.396;2023-02-15T05:05:54;102583.84;;;3.50;100.00
13422;BME280;6782;55.904;13.396;2023-02-15T05:08:41;102573.38;;;3.48;100.00
13422;BME280;6782;55.904;13.396;2023-02-15T05:11:29;102583.97;;;3.53;100.00
13422;BME280;6782;55.904;13.396;2023-02-15T05:14:17;102585.63;;;3.51;100.00
13422;BME280;6782;55.904;13.396;2023-02-15T05:17:04;102577.06;;;3.55;100.00
13422;BME280;6782;55.904;13.396;2023-02-15T05:19:51;102588.03;;;3.70;100.00
13422;BME280;6782;55.904;13.396;2023-02-15T05:22:38;102593.25;;;3.70;100.00
13422;BME280;6782;55.904;13.396;2023-02-15T05:25:26;102581.69;;;3.62;100.00
13422;BME280;6782;55.904;13.396;2023-02-15T05:28:32;102590.38;;;3.62;100.00
13422;BME280;6782;55.904;13.396;2023-02-15T05:31:20;102580.53;;;3.54;100.00
13422;BME280;6782;55.904;13.396;2023-02-15T05:34:07;102583.25;;;3.57;100.00
13422;BME280;6782;55.904;13.396;2023-02-15T05:36:54;102582.28;;;3.55;100.00
13422;BME280;6782;55.904;13.396;2023-02-15T05:39:41;102585.94;;;3.60;100.00
13422;BME280;6782;55.904;13.396;2023-02-15T05:42:28;102581.06;;;3.69;100.00
13422;BME280;6782;55.904;13.396;2023-02-15T05:45:16;102582.63;;;3.64;100.00
13422;BME280;6782;55.904;13.396;2023-02-15T05:48:04;102589.59;;;3.65;100.00
13422;BME280;6782;55.904;13.396;2023-02-15T05:50:57;102580.72;;;3.60;100.00
13422;BME280;6782;55.904;13.396;2023-02-15T05:53:45;102571.97;;;3.58;100.00
13422;BME280;6782;55.904;13.396;2023-02-15T05:56:32;102575.44;;;3.57;100.00
13422;BME280;6782;55.904;13.396;2023-02-15T05:59:19;102581.56;;;3.59;100.00
13422;BME280;6782;55.904;13.396;2023-02-15T06:02:07;102590.63;;;3.70;100.00
13422;BME280;6782;55.904;13.396;2023-02-15T06:04:54;102595.03;;;3.71;100.00
13422;BME280;6782;55.904;13.396;2023-02-15T06:07:43;102587.94;;;3.67;100.00
13422;BME280;6782;55.904;13.396;2023-02-15T06:10:31;102583.56;;;3.66;100.00
13422;BME280;6782;55.904;13.396;2023-02-15T06:13:18;102587.06;;;3.66;100.00
13422;BME280;6782;55.904;13.396;2023-02-15T06:16:06;102584.47;;;3.68;100.00
13422;BME280;6782;55.904;13.396;2023-02-15T06:18:54;102586.28;;;3.69;100.00
13422;BME280;6782;55.904;13.396;2023-02-15T06:21:41;102584.69;;;3.74;100.00
13422;BME280;6782;55.904;13.396;2023-02-15T06:24:28;102588.13;;;3.73;100.00
13422;BME280;6782;55.904;13.396;2023-02-15T06:27:16;102580.25;;;3.71;100.00
13422;BME280;6782;55.904;13.396;2023-02-15T06:30:05;102584.38;;;3.65;100.00
13422;BME280;6782;55.904;13.396;2023-02-15T06:32:52;102593.25;;;3.70;100.00
13422;BME280;6782;55.904;13.396;2023-02-15T06:35:41;102579.34;;;3.69;100.00
13422;BME280;6782;55.904;13.396;2023-02-15T06:38:29;102586.28;;;3.69;100.00
13422;BME280;6782;55.904;13.396;2023-02-15T06:41:16;102584.88;;;3.80;100.00
13422;BME280;6782;55.904;13.396;2023-02-15T06:44:04;102587.41;;;3.77;100.00
13422;BME280;6782;55.904;13.396;2023-02-15T06:46:51;102588.38;;;3.80;100.00
13422;BME280;6782;55.904;13.396;2023-02-15T06:49:39;102590.22;;;3.83;100.00
13422;BME280;6782;55.904;13.396;2023-02-15T06:52:27;102590.84;;;3.76;100.00
13422;BME280;6782;55.904;13.396;2023-02-15T06:55:15;102603.44;;;3.88;100.00
13422;BME280;6782;55.904;13.396;2023-02-15T06:58:02;102594.56;;;3.83;100.00
13422;BME280;6782;55.904;13.396;2023-02-15T07:00:51;102599.78;;;3.83;100.00
13422;BME280;6782;55.904;13.396;2023-02-15T07:03:38;102600.75;;;3.86;100.00
13422;BME280;6782;55.904;13.396;2023-02-15T07:06:25;102600.75;;;3.86;100.00
13422;BME280;6782;55.904;13.396;2023-02-15T07:09:13;102598.28;;;3.91;100.00
13422;BME280;6782;55.904;13.396;2023-02-15T07:12:00;102593.84;;;3.88;100.00
13422;BME280;6782;55.904;13.396;2023-02-15T07:15:06;102594.81;;;3.90;100.00
13422;BME280;6782;55.904;13.396;2023-02-15T07:17:54;102599.19;;;3.91;100.00
13422;BME280;6782;55.904;13.396;2023-02-15T07:20:41;102591.47;;;3.94;100.00
13422;BME280;6782;55.904;13.396;2023-02-15T07:23:28;102594.38;;;4.03;100.00
13422;BME280;6782;55.904;13.396;2023-02-15T07:26:17;102591.59;;;3.99;100.00
13422;BME280;6782;55.904;13.396;2023-02-15T07:29:05;102596.03;;;4.01;100.00
13422;BME280;6782;55.904;13.396;2023-02-15T07:31:36;102591.59;;;3.99;100.00
13422;BME280;6782;55.904;13.396;2023-02-15T07:34:05;102596.03;;;4.01;100.00
13422;BME280;6782;55.904;13.396;2023-02-15T07:36:32;102601.94;;;4.21;100.00
13422;BME280;6782;55.904;13.396;2023-02-15T07:38:59;102589.47;;;4.12;100.00
13422;BME280;6782;55.904;13.396;2023-02-15T07:41:28;102594.47;;;4.06;100.00
13422;BME280;6782;55.904;13.396;2023-02-15T07:43:56;102600.78;;;4.13;100.00
13422;BME280;6782;55.904;13.396;2023-02-15T07:46:23;102593.09;;;4.17;100.00
13422;BME280;6782;55.904;13.396;2023-02-15T07:48:50;102591.53;;;4.22;100.00
13422;BME280;6782;55.904;13.396;2023-02-15T07:51:17;102602.34;;;4.34;100.00
13422;BME280;6782;55.904;13.396;2023-02-15T07:53:45;102597.97;;;4.33;100.00
13422;BME280;6782;55.904;13.396;2023-02-15T07:56:13;102595.28;;;4.30;100.00
13422;BME280;6782;55.904;13.396;2023-02-15T07:58:42;102597.03;;;4.31;100.00
13422;BME280;6782;55.904;13.396;2023-02-15T08:01:22;102586.53;;;4.30;100.00
13422;BME280;6782;55.904;13.396;2023-02-15T08:03:50;102598.22;;;4.41;100.00
13422;BME280;6782;55.904;13.396;2023-02-15T08:06:19;102595.75;;;4.46;100.00
13422;BME280;6782;55.904;13.396;2023-02-15T08:08:46;102594.75;;;4.42;100.00
13422;BME280;6782;55.904;13.396;2023-02-15T08:11:19;102588.72;;;4.44;100.00
13422;BME280;6782;55.904;13.396;2023-02-15T08:13:57;102580.16;;;4.49;100.00
13422;BME280;6782;55.904;13.396;2023-02-15T08:16:27;102586.91;;;4.42;100.00
13422;BME280;6782;55.904;13.396;2023-02-15T08:18:55;102581.75;;;4.43;100.00
13422;BME280;6782;55.904;13.396;2023-02-15T08:21:25;102582.72;;;4.47;100.00
13422;BME280;6782;55.904;13.396;2023-02-15T08:23:54;102578.38;;;4.48;100.00
13422;BME280;6782;55.904;13.396;2023-02-15T08:26:22;102596.22;;;4.61;100.00
13422;BME280;6782;55.904;13.396;2023-02-15T08:28:50;102578.69;;;4.57;100.00
13422;BME280;6782;55.904;13.396;2023-02-15T08:31:19;102586.97;;;4.72;100.00
13422;BME280;6782;55.904;13.396;2023-02-15T08:33:48;102581.00;;;4.76;100.00
13422;BME280;6782;55.904;13.396;2023-02-15T08:36:17;102584.81;;;4.87;100.00
13422;BME280;6782;55.904;13.396;2023-02-15T08:38:45;102572.47;;;4.83;100.00
13422;BME280;6782;55.904;13.396;2023-02-15T08:41:14;102579.50;;;4.84;100.00
13422;BME280;6782;55.904;13.396;2023-02-15T08:43:42;102569.41;;;4.68;100.00
13422;BME280;6782;55.904;13.396;2023-02-15T08:46:28;102568.13;;;4.83;100.00
13422;BME280;6782;55.904;13.396;2023-02-15T08:48:57;102567.31;;;4.84;100.00
13422;BME280;6782;55.904;13.396;2023-02-15T08:51:26;102573.88;;;5.00;100.00
13422;BME280;6782;55.904;13.396;2023-02-15T08:53:55;102571.16;;;4.97;100.00
13422;BME280;6782;55.904;13.396;2023-02-15T08:56:23;102565.50;;;4.82;100.00
13422;BME280;6782;55.904;13.396;2023-02-15T08:58:52;102566.91;;;5.00;100.00
13422;BME280;6782;55.904;13.396;2023-02-15T09:01:21;102561.84;;;5.06;100.00
13422;BME280;6782;55.904;13.396;2023-02-15T09:04:06;102547.31;;;4.86;100.00
13422;BME280;6782;55.904;13.396;2023-02-15T09:06:34;102539.59;;;4.91;100.00
13422;BME280;6782;55.904;13.396;2023-02-15T09:09:02;102539.88;;;5.00;100.00
13422;BME280;6782;55.904;13.396;2023-02-15T09:11:31;102542.94;;;5.17;100.00
13422;BME280;6782;55.904;13.396;2023-02-15T09:14:00;102544.84;;;5.22;100.00
13422;BME280;6782;55.904;13.396;2023-02-15T09:16:30;102537.72;;;5.17;100.00
13422;BME280;6782;55.904;13.396;2023-02-15T09:18:59;102529.53;;;5.04;100.00
13422;BME280;6782;55.904;13.396;2023-02-15T09:21:45;102524.19;;;5.00;100.00
13422;BME280;6782;55.904;13.396;2023-02-15T09:24:14;102530.81;;;5.19;100.00
13422;BME280;6782;55.904;13.396;2023-02-15T09:26:45;102524.91;;;5.27;100.00
13422;BME280;6782;55.904;13.396;2023-02-15T09:29:30;102520.19;;;5.14;100.00
13422;BME280;6782;55.904;13.396;2023-02-15T09:31:57;102519.59;;;5.24;100.00
13422;BME280;6782;55.904;13.396;2023-02-15T09:34:25;102512.34;;;5.14;100.00
13422;BME280;6782;55.904;13.396;2023-02-15T09:36:53;102514.34;;;5.23;100.00
13422;BME280;6782;55.904;13.396;2023-02-15T09:39:33;102505.78;;;5.28;100.00
13422;BME280;6782;55.904;13.396;2023-02-15T09:42:20;102511.16;;;5.34;100.00
13422;BME280;6782;55.904;13.396;2023-02-15T09:45:07;102510.50;;;5.41;100.00
13422;BME280;6782;55.904;13.396;2023-02-15T09:48:03;102506.91;;;5.39;100.00
13422;BME280;6782;55.904;13.396;2023-02-15T09:50:43;102500.94;;;5.43;100.00
13422;BME280;6782;55.904;13.396;2023-02-15T09:53:33;102492.38;;;5.49;100.00
13422;BME280;6782;55.904;13.396;2023-02-15T09:56:09;102483.47;;;5.42;100.00
13422;BME280;6782;55.904;13.396;2023-02-15T09:58:47;102480.97;;;5.47;100.00
13422;BME280;6782;55.904;13.396;2023-02-15T10:01:26;102474.69;;;5.40;100.00
13422;BME280;6782;55.904;13.396;2023-02-15T10:04:12;102484.72;;;5.58;100.00
13422;BME280;6782;55.904;13.396;2023-02-15T10:06:54;102481.16;;;5.54;100.00
13422;BME280;6782;55.904;13.396;2023-02-15T10:09:37;102483.25;;;5.69;100.00
13422;BME280;6782;55.904;13.396;2023-02-15T10:12:20;102479.00;;;5.73;100.00
13422;BME280;6782;55.904;13.396;2023-02-15T10:15:09;102470.72;;;5.56;100.00
13422;BME280;6782;55.904;13.396;2023-02-15T10:17:52;102470.22;;;5.70;100.00
13422;BME280;6782;55.904;13.396;2023-02-15T10:20:28;102479.06;;;5.76;100.00
13422;BME280;6782;55.904;13.396;2023-02-15T10:23:12;102463.13;;;5.66;100.00
13422;BME280;6782;55.904;13.396;2023-02-15T10:25:50;102453.66;;;5.72;100.00
13422;BME280;6782;55.904;13.396;2023-02-15T10:28:26;102461.59;;;5.75;100.00
13422;BME280;6782;55.904;13.396;2023-02-15T10:31:04;102455.09;;;5.59;100.00
13422;BME280;6782;55.904;13.396;2023-02-15T10:33:39;102449.75;;;5.54;100.00
13422;BME280;6782;55.904;13.396;2023-02-15T10:36:16;102450.69;;;5.56;100.00
13422;BME280;6782;55.904;13.396;2023-02-15T10:38:54;102459.81;;;5.74;100.00
13422;BME280;6782;55.904;13.396;2023-02-15T10:41:34;102447.44;;;5.66;100.00
13422;BME280;6782;55.904;13.396;2023-02-15T10:44:18;102443.00;;;5.64;100.00
13422;BME280;6782;55.904;13.396;2023-02-15T10:47:08;102444.75;;;5.63;100.00
13422;BME280;6782;55.904;13.396;2023-02-15T10:50:03;102437.69;;;5.61;100.00
13422;BME280;6782;55.904;13.396;2023-02-15T10:52:44;102440.34;;;5.62;100.00
13422;BME280;6782;55.904;13.396;2023-02-15T10:58:07;102437.81;;;5.65;100.00
13422;BME280;6782;55.904;13.396;2023-02-15T11:00:59;102428.19;;;5.64;100.00
13422;BME280;6782;55.904;13.396;2023-02-15T11:03:37;102441.53;;;5.75;100.00
13422;BME280;6782;55.904;13.396;2023-02-15T11:06:08;102429.38;;;5.77;100.00
13422;BME280;6782;55.904;13.396;2023-02-15T11:08:40;102426.69;;;5.76;100.00
13422;BME280;6782;55.904;13.396;2023-02-15T11:11:14;102433.19;;;5.91;100.00
13422;BME280;6782;55.904;13.396;2023-02-15T11:13:47;102435.91;;;5.96;100.00
13422;BME280;6782;55.904;13.396;2023-02-15T11:16:17;102440.69;;;6.13;100.00
13422;BME280;6782;55.904;13.396;2023-02-15T11:18:52;102428.84;;;5.92;100.00
13422;BME280;6782;55.904;13.396;2023-02-15T11:21:22;102422.63;;;5.87;100.00
13422;BME280;6782;55.904;13.396;2023-02-15T11:23:51;102415.56;;;5.84;100.00
13422;BME280;6782;55.904;13.396;2023-02-15T11:26:24;102418.31;;;5.89;100.00
13422;BME280;6782;55.904;13.396;2023-02-15T11:28:58;102418.38;;;5.92;100.00
13422;BME280;6782;55.904;13.396;2023-02-15T11:31:27;102405.81;;;5.79;100.00
13422;BME280;6782;55.904;13.396;2023-02-15T11:34:03;102402.38;;;5.80;100.00
13422;BME280;6782;55.904;13.396;2023-02-15T11:36:34;102398.72;;;5.73;100.00
13422;BME280;6782;55.904;13.396;2023-02-15T11:39:07;102395.25;;;5.73;100.00
13422;BME280;6782;55.904;13.396;2023-02-15T11:41:39;102387.47;;;5.77;100.00
13422;BME280;6782;55.904;13.396;2023-02-15T11:44:31;102390.41;;;5.89;100.00
13422;BME280;6782;55.904;13.396;2023-02-15T11:47:19;102388.78;;;5.96;100.00
13422;BME280;6782;55.904;13.396;2023-02-15T11:50:11;102396.19;;;6.15;100.00
13422;BME280;6782;55.904;13.396;2023-02-15T11:53:01;102385.72;;;6.15;100.00
13422;BME280;6782;55.904;13.396;2023-02-15T11:55:49;102389.00;;;6.05;100.00
13422;BME280;6782;55.904;13.396;2023-02-15T11:58:41;102389.25;;;6.17;100.00
13422;BME280;6782;55.904;13.396;2023-02-15T12:01:35;102382.03;;;6.07;100.00
13422;BME280;6782;55.904;13.396;2023-02-15T12:04:26;102381.31;;;6.14;100.00
13422;BME280;6782;55.904;13.396;2023-02-15T12:07:20;102378.03;;;6.24;100.00
13422;BME280;6782;55.904;13.396;2023-02-15T12:10:17;102382.44;;;6.25;100.00
13422;BME280;6782;55.904;13.396;2023-02-15T12:13:12;102380.84;;;6.33;100.00
13422;BME280;6782;55.904;13.396;2023-02-15T12:16:06;102364.91;;;6.21;100.00
13422;BME280;6782;55.904;13.396;2023-02-15T12:18:58;102357.25;;;6.32;100.00
13422;BME280;6782;55.904;13.396;2023-02-15T12:21:49;102361.69;;;6.37;100.00
13422;BME280;6782;55.904;13.396;2023-02-15T12:24:44;102349.19;;;6.21;100.00
13422;BME280;6782;55.904;13.396;2023-02-15T12:27:34;102333.47;;;6.22;100.00
13422;BME280;6782;55.904;13.396;2023-02-15T12:30:25;102321.13;;;6.17;100.00
13422;BME280;6782;55.904;13.396;2023-02-15T12:33:25;102315.97;;;6.20;100.00
13422;BME280;6782;55.904;13.396;2023-02-15T12:36:18;102300.31;;;6.23;100.00
13422;BME280;6782;55.904;13.396;2023-02-15T12:39:17;102302.19;;;6.30;100.00
13422;BME280;6782;55.904;13.396;2023-02-15T12:42:15;102298.94;;;6.43;100.00
13422;BME280;6782;55.904;13.396;2023-02-15T12:45:20;102285.03;;;6.47;100.00
13422;BME280;6782;55.904;13.396;2023-02-15T12:48:15;102282.47;;;6.50;100.00
13422;BME280;6782;55.904;13.396;2023-02-15T12:51:07;102266.47;;;6.35;100.00
13422;BME280;6782;55.904;13.396;2023-02-15T12:53:57;102250.00;;;6.42;100.00
13422;BME280;6782;55.904;13.396;2023-02-15T12:56:46;102250.28;;;6.57;100.00
13422;BME280;6782;55.904;13.396;2023-02-15T12:59:34;102226.59;;;6.53;100.00
13422;BME280;6782;55.904;13.396;2023-02-15T13:02:29;102229.44;;;6.66;100.00
13422;BME280;6782;55.904;13.396;2023-02-15T13:05:21;102221.69;;;6.72;100.00
13422;BME280;6782;55.904;13.396;2023-02-15T13:08:14;102204.91;;;6.61;100.00
13422;BME280;6782;55.904;13.396;2023-02-15T13:11:06;102196.19;;;6.62;100.00
13422;BME280;6782;55.904;13.396;2023-02-15T13:13:56;102176.91;;;6.59;100.00
13422;BME280;6782;55.904;13.396;2023-02-15T13:16:47;102155.03;;;6.57;100.00
13422;BME280;6782;55.904;13.396;2023-02-15T13:19:39;102151.47;;;6.53;100.00
13422;BME280;6782;55.904;13.396;2023-02-15T13:22:33;102145.44;;;6.57;100.00
13422;BME280;6782;55.904;13.396;2023-02-15T13:25:23;102131.31;;;6.49;100.00
13422;BME280;6782;55.904;13.396;2023-02-15T13:28:14;102126.97;;;6.51;100.00
13422;BME280;6782;55.904;13.396;2023-02-15T13:31:07;102110.19;;;6.40;100.00
13422;BME280;6782;55.904;13.396;2023-02-15T13:34:03;102117.28;;;6.47;100.00
13422;BME280;6782;55.904;13.396;2023-02-15T13:37:01;102096.31;;;6.46;100.00
13422;BME280;6782;55.904;13.396;2023-02-15T13:39:59;102091.06;;;6.44;100.00
13422;BME280;6782;55.904;13.396;2023-02-15T13:42:53;102083.44;;;6.61;100.00
13422;BME280;6782;55.904;13.396;2023-02-15T13:45:55;102072.16;;;6.66;100.00
13422;BME280;6782;55.904;13.396;2023-02-15T13:48:48;102060.78;;;6.66;100.00
13422;BME280;6782;55.904;13.396;2023-02-15T13:51:43;102042.28;;;6.52;100.00
13422;BME280;6782;55.904;13.396;2023-02-15T13:54:44;102028.19;;;6.46;100.00
13422;BME280;6782;55.904;13.396;2023-02-15T13:57:48;102026.56;;;6.52;100.00
13422;BME280;6782;55.904;13.396;2023-02-15T14:00:49;102024.88;;;6.60;100.00
13422;BME280;6782;55.904;13.396;2023-02-15T14:07:30;102011.91;;;6.69;100.00
13422;BME280;6782;55.904;13.396;2023-02-15T14:10:29;101996.75;;;6.47;100.00
13422;BME280;6782;55.904;13.396;2023-02-15T14:13:57;101989.81;;;6.49;100.00
13422;BME280;6782;55.904;13.396;2023-02-15T14:16:55;102000.44;;;6.61;100.00
13422;BME280;6782;55.904;13.396;2023-02-15T14:19:48;101990.69;;;6.51;100.00
13422;BME280;6782;55.904;13.396;2023-02-15T14:22:42;101986.53;;;6.68;100.00
13422;BME280;6782;55.904;13.396;2023-02-15T14:25:35;101968.75;;;6.43;100.00
13422;BME280;6782;55.904;13.396;2023-02-15T14:28:28;101952.88;;;6.31;100.00
13422;BME280;6782;55.904;13.396;2023-02-15T14:31:25;101947.59;;;6.28;100.00
13422;BME280;6782;55.904;13.396;2023-02-15T14:34:21;101939.53;;;6.14;100.00
13422;BME280;6782;55.904;13.396;2023-02-15T14:37:11;101933.50;;;6.20;100.00
13422;BME280;6782;55.904;13.396;2023-02-15T14:40:03;101939.69;;;6.23;100.00